createdAt,value
2018-09-21T04:29:25.347Z,18.40
2018-09-21T04:31:53.912Z,18.30
2018-09-21T04:34:22.414Z,18.30
2018-09-21T04:36:51.003Z,18.40
2018-09-21T04:39:19.519Z,18.40
2018-09-21T04:41:48.047Z,18.40
2018-09-21T04:44:16.579Z,18.40
2018-09-21T04:46:45.128Z,18.40
2018-09-21T04:49:13.643Z,18.20
2018-09-21T04:51:42.138Z,18.20
2018-09-21T04:54:11.001Z,18.30
2018-09-21T04:56:39.628Z,18.30
2018-09-21T04:59:08.185Z,18.30
2018-09-21T05:01:36.689Z,18.30
2018-09-21T05:04:05.223Z,18.30
2018-09-21T05:06:33.726Z,18.30
2018-09-21T05:09:02.241Z,18.40
2018-09-21T05:11:30.768Z,18.40
2018-09-21T05:13:59.346Z,18.50
2018-09-21T05:16:27.837Z,18.50
2018-09-21T05:18:56.377Z,18.50
2018-09-21T05:21:24.886Z,18.40
2018-09-21T05:23:53.438Z,18.40
2018-09-21T05:26:21.954Z,18.50
2018-09-21T05:28:50.510Z,18.50
2018-09-21T05:31:19.036Z,18.50
2018-09-21T05:33:47.562Z,18.50
2018-09-21T05:36:16.104Z,18.40
2018-09-21T05:38:44.626Z,18.50
2018-09-21T05:41:13.117Z,18.50
2018-09-21T05:43:41.643Z,18.50
2018-09-21T05:46:10.166Z,18.40
2018-09-21T05:48:38.771Z,18.40
2018-09-21T05:51:07.380Z,18.50
2018-09-21T05:53:35.913Z,18.60
2018-09-21T05:56:04.479Z,18.60
2018-09-21T05:58:32.982Z,18.70
2018-09-21T06:01:01.502Z,18.70
2018-09-21T06:03:30.046Z,18.90
2018-09-21T06:05:58.568Z,18.70
2018-09-21T06:08:27.224Z,18.70
2018-09-21T06:10:55.762Z,18.80
2018-09-21T06:13:24.334Z,18.90
2018-09-21T06:15:52.841Z,18.90
2018-09-21T06:18:21.382Z,18.90
2018-09-21T06:20:49.903Z,19.00
2018-09-21T06:23:18.446Z,18.90
2018-09-21T06:25:47.012Z,19.00
2018-09-21T06:28:15.570Z,19.10
2018-09-21T06:30:44.095Z,19.10
2018-09-21T06:33:12.639Z,19.20
2018-09-21T06:35:41.192Z,19.30
2018-09-21T06:38:09.713Z,19.30
2018-09-21T06:40:38.251Z,19.40
2018-09-21T06:43:06.860Z,19.50
2018-09-21T06:45:35.439Z,19.50
2018-09-21T06:48:03.967Z,19.60
2018-09-21T06:50:32.511Z,19.60
2018-09-21T06:53:01.143Z,19.70
2018-09-21T06:55:29.683Z,19.60
2018-09-21T06:57:58.195Z,19.40
2018-09-21T07:00:26.743Z,19.50
2018-09-21T07:02:55.258Z,19.70
2018-09-21T07:05:23.826Z,19.70
2018-09-21T07:07:52.364Z,19.40
2018-09-21T07:10:20.911Z,19.00
2018-09-21T07:12:49.529Z,18.70
2018-09-21T07:15:18.084Z,18.50
2018-09-21T07:17:46.606Z,18.60
2018-09-21T07:20:15.141Z,18.70
2018-09-21T07:22:43.664Z,19.00
2018-09-21T07:25:12.203Z,19.00
2018-09-21T07:27:40.742Z,19.10
2018-09-21T07:30:09.284Z,19.10
2018-09-21T07:32:37.870Z,19.20
2018-09-21T07:35:06.403Z,19.30
2018-09-21T07:37:34.924Z,19.50
2018-09-21T07:40:04.019Z,19.50
2018-09-21T07:42:32.538Z,19.60
2018-09-21T07:45:01.088Z,19.80
2018-09-21T07:47:29.621Z,19.90
2018-09-21T07:49:58.175Z,19.90
2018-09-21T07:52:26.691Z,20.00
2018-09-21T07:54:55.215Z,20.00
2018-09-21T07:57:23.730Z,19.60
2018-09-21T07:59:52.215Z,19.60
2018-09-21T08:02:20.750Z,19.80
2018-09-21T08:04:49.306Z,19.90
2018-09-21T08:07:17.959Z,20.00
2018-09-21T08:09:46.430Z,20.00
2018-09-21T08:12:14.979Z,20.20
2018-09-21T08:14:43.512Z,20.20
2018-09-21T08:17:12.045Z,20.30
2018-09-21T08:19:40.619Z,20.30
2018-09-21T08:22:09.155Z,20.20
2018-09-21T08:24:37.665Z,20.30
2018-09-21T08:27:06.385Z,20.30
2018-09-21T08:29:34.880Z,20.30
2018-09-21T08:32:03.434Z,20.40
2018-09-21T08:34:31.941Z,20.60
2018-09-21T08:37:00.585Z,20.60
2018-09-21T08:39:29.061Z,20.60
2018-09-21T08:41:57.623Z,20.70
2018-09-21T08:44:26.153Z,20.60
2018-09-21T08:46:54.670Z,20.70
2018-09-21T08:49:23.203Z,20.60
2018-09-21T08:51:51.730Z,20.80
2018-09-21T08:54:20.274Z,20.70
2018-09-21T08:56:49.640Z,20.80
2018-09-21T08:59:18.140Z,20.90
2018-09-21T09:01:46.750Z,21.00
2018-09-21T09:04:15.273Z,21.00
2018-09-21T09:06:43.815Z,21.00
2018-09-21T09:09:12.337Z,21.10
2018-09-21T09:11:40.906Z,21.20
2018-09-21T09:14:09.473Z,21.30
2018-09-21T09:16:37.993Z,21.30
2018-09-21T09:19:06.602Z,21.30
2018-09-21T09:21:35.110Z,21.40
2018-09-21T09:24:03.667Z,21.40
2018-09-21T09:26:32.195Z,21.40
2018-09-21T09:29:00.741Z,21.50
2018-09-21T09:31:29.285Z,21.50
2018-09-21T09:33:57.839Z,21.60
2018-09-21T09:36:26.342Z,21.60
2018-09-21T09:38:54.870Z,21.70
2018-09-21T09:41:23.410Z,21.60
2018-09-21T09:43:51.960Z,21.70
2018-09-21T09:46:20.522Z,21.80
2018-09-21T09:48:49.235Z,21.80
2018-09-21T09:51:17.686Z,21.90
2018-09-21T09:53:46.213Z,21.80
2018-09-21T09:56:14.694Z,21.90
2018-09-21T09:58:43.242Z,22.00
2018-09-21T10:01:11.795Z,22.10
2018-09-21T10:03:40.389Z,22.30
2018-09-21T10:06:08.898Z,22.10
2018-09-21T10:08:37.419Z,22.20
2018-09-21T10:11:06.051Z,22.30
2018-09-21T10:13:34.616Z,22.40
2018-09-21T10:16:03.142Z,22.50
2018-09-21T10:18:31.730Z,22.70
2018-09-21T10:21:00.246Z,22.90
2018-09-21T10:23:28.779Z,23.10
2018-09-21T10:25:57.305Z,23.30
2018-09-21T10:28:25.980Z,23.30
2018-09-21T10:30:54.370Z,23.40
2018-09-21T10:33:22.977Z,23.40
2018-09-21T10:35:51.506Z,23.40
2018-09-21T10:38:20.070Z,23.40
2018-09-21T10:40:48.591Z,23.40
2018-09-21T10:43:17.137Z,23.40
2018-09-21T10:45:45.650Z,23.40
2018-09-21T10:48:14.212Z,23.50
2018-09-21T10:50:42.714Z,23.60
2018-09-21T10:53:11.274Z,23.50
2018-09-21T10:55:39.795Z,23.50
2018-09-21T10:58:08.339Z,23.50
2018-09-21T11:00:36.912Z,23.40
2018-09-21T11:03:05.507Z,23.40
2018-09-21T11:05:33.991Z,23.40
2018-09-21T11:08:02.548Z,23.40
2018-09-21T11:10:31.115Z,23.40
2018-09-21T11:12:59.688Z,23.40
2018-09-21T11:15:28.218Z,23.50
2018-09-21T11:17:56.866Z,23.50
2018-09-21T11:20:26.585Z,23.50
2018-09-21T11:22:56.134Z,23.50
2018-09-21T11:25:26.235Z,23.50
2018-09-21T11:27:57.280Z,23.50
2018-09-21T11:30:25.908Z,23.50
2018-09-21T11:32:55.742Z,23.50
2018-09-21T11:35:25.532Z,23.50
2018-09-21T11:37:54.063Z,23.50
2018-09-21T11:40:22.656Z,23.40
2018-09-21T11:42:51.199Z,23.30
2018-09-21T11:45:19.777Z,23.30
2018-09-21T11:47:48.406Z,23.30
2018-09-21T11:50:17.744Z,23.20
2018-09-21T11:52:46.389Z,23.20
2018-09-21T11:55:14.998Z,23.10
2018-09-21T11:57:43.546Z,23.10
2018-09-21T12:00:12.116Z,23.00
2018-09-21T12:02:40.723Z,22.90
2018-09-21T12:05:09.290Z,22.90
2018-09-21T12:07:37.842Z,22.80
2018-09-21T12:10:06.484Z,22.80
2018-09-21T12:12:35.675Z,22.80
2018-09-21T12:15:04.791Z,22.70
2018-09-21T12:17:34.402Z,22.50
2018-09-21T12:20:03.488Z,22.30
2018-09-21T12:22:32.005Z,21.90
2018-09-21T12:25:00.563Z,21.70
2018-09-21T12:27:30.424Z,21.60
2018-09-21T12:30:00.197Z,21.40
2018-09-21T12:32:29.089Z,21.20
2018-09-21T12:34:59.253Z,21.10
2018-09-21T12:37:27.892Z,21.10
2018-09-21T12:39:58.186Z,21.10
2018-09-21T12:42:28.045Z,21.00
2018-09-21T12:44:56.939Z,21.00
2018-09-21T12:47:26.655Z,20.90
2018-09-21T12:49:56.900Z,20.60
2018-09-21T12:52:26.479Z,19.90
2018-09-21T12:54:56.275Z,19.20
2018-09-21T12:57:26.083Z,18.40
2018-09-21T12:59:56.031Z,17.80
2018-09-21T13:02:25.731Z,17.20
2018-09-21T13:04:55.442Z,16.80
2018-09-21T13:07:25.058Z,16.80
2018-09-21T13:09:55.210Z,16.60
2018-09-21T13:12:23.809Z,16.30
2018-09-21T13:14:53.826Z,16.20
2018-09-21T13:17:22.461Z,16.00
2018-09-21T13:19:51.801Z,16.10
2018-09-21T13:22:20.320Z,16.00
2018-09-21T13:24:48.867Z,16.10
2018-09-21T13:27:17.646Z,16.00
2018-09-21T13:29:47.125Z,16.00
2018-09-21T13:32:16.879Z,16.00
2018-09-21T13:34:48.367Z,16.00
2018-09-21T13:37:17.907Z,16.10
2018-09-21T13:39:46.747Z,16.00
2018-09-21T13:42:16.664Z,16.00
2018-09-21T13:44:45.190Z,16.10
2018-09-21T13:47:14.706Z,16.00
2018-09-21T13:49:44.844Z,16.00
2018-09-21T13:52:14.225Z,16.00
2018-09-21T13:54:42.775Z,16.00
2018-09-21T13:57:11.308Z,16.10
2018-09-21T13:59:40.330Z,16.00
2018-09-21T14:02:08.901Z,15.90
2018-09-21T14:04:37.410Z,16.00
2018-09-21T14:07:06.146Z,16.00
2018-09-21T14:09:34.678Z,15.80
2018-09-21T14:12:03.218Z,15.70
2018-09-21T14:14:31.897Z,15.60
2018-09-21T14:17:00.482Z,15.60
2018-09-21T14:19:29.014Z,15.50
2018-09-21T14:21:59.014Z,15.50
2018-09-21T14:24:27.570Z,15.60
2018-09-21T14:26:56.143Z,15.50
2018-09-21T14:29:26.298Z,15.50
2018-09-21T14:31:55.888Z,15.60
2018-09-21T14:34:32.936Z,15.60
2018-09-21T14:37:05.592Z,15.60
2018-09-21T14:39:34.890Z,15.70
2018-09-21T14:42:04.189Z,15.80
2018-09-21T14:44:34.376Z,15.90
2018-09-21T14:47:07.905Z,16.10
2018-09-21T14:49:39.705Z,16.20
2018-09-21T14:52:10.609Z,16.30
2018-09-21T14:54:41.938Z,16.40
2018-09-21T14:57:12.573Z,16.30
2018-09-21T14:59:41.478Z,16.30
2018-09-21T15:02:10.869Z,16.40
2018-09-21T15:04:39.406Z,16.50
2018-09-21T15:07:11.119Z,16.70
2018-09-21T15:09:39.706Z,16.70
2018-09-21T15:12:08.406Z,16.80
2018-09-21T15:14:37.046Z,17.00
2018-09-21T15:17:05.586Z,17.40
2018-09-21T15:19:34.949Z,17.20
2018-09-21T15:22:04.494Z,17.30
2018-09-21T15:24:33.474Z,17.20
2018-09-21T15:27:04.232Z,17.40
2018-09-21T15:29:32.774Z,17.20
2018-09-21T15:32:01.759Z,17.30
2018-09-21T15:34:30.254Z,17.40
2018-09-21T15:36:58.960Z,17.40
2018-09-21T15:39:28.056Z,17.20
2018-09-21T15:41:56.624Z,17.10
2018-09-21T15:44:28.040Z,17.20
2018-09-21T15:46:58.156Z,17.20
2018-09-21T15:49:28.177Z,17.30
2018-09-21T15:51:58.074Z,17.10
2018-09-21T15:54:28.353Z,17.10
2018-09-21T15:56:58.994Z,17.20
2018-09-21T15:59:28.568Z,17.20
2018-09-21T16:01:57.668Z,17.20
2018-09-21T16:04:28.690Z,17.30
2018-09-21T16:07:00.471Z,17.50
2018-09-21T16:09:33.926Z,17.60
2018-09-21T16:12:04.909Z,17.40
2018-09-21T16:14:34.864Z,17.20
2018-09-21T16:17:06.898Z,17.10
2018-09-21T16:19:35.410Z,17.20
2018-09-21T16:22:03.950Z,17.10
2018-09-21T16:24:32.457Z,17.10
2018-09-21T16:27:01.000Z,17.20
2018-09-21T16:29:29.539Z,17.10
2018-09-21T16:31:58.613Z,17.00
2018-09-21T16:34:27.124Z,17.00
2018-09-21T16:36:55.683Z,17.10
2018-09-21T16:39:24.292Z,16.80
2018-09-21T16:41:53.203Z,16.80
2018-09-21T16:44:21.866Z,16.70
2018-09-21T16:46:51.804Z,16.70
2018-09-21T16:49:20.573Z,16.70
2018-09-21T16:51:49.719Z,16.80
2018-09-21T16:54:18.379Z,16.70
2018-09-21T16:56:47.015Z,16.70
2018-09-21T16:59:15.546Z,16.70
2018-09-21T17:01:44.089Z,16.60
2018-09-21T17:04:12.700Z,16.60
2018-09-21T17:06:41.164Z,16.40
2018-09-21T17:09:11.565Z,16.40
2018-09-21T17:11:40.234Z,16.40
2018-09-21T17:14:08.843Z,16.40
2018-09-21T17:16:37.387Z,16.40
2018-09-21T17:19:06.187Z,16.30
2018-09-21T17:21:36.995Z,16.30
2018-09-21T17:24:05.871Z,16.30
2018-09-21T17:26:34.528Z,16.30
2018-09-21T17:29:06.773Z,16.30
2018-09-21T17:31:36.238Z,16.20
2018-09-21T17:34:05.842Z,16.30
2018-09-21T17:36:35.337Z,16.20
2018-09-21T17:39:06.585Z,16.20
2018-09-21T17:41:36.928Z,16.10
2018-09-21T17:44:06.713Z,16.00
2018-09-21T17:46:36.439Z,16.10
2018-09-21T17:49:12.386Z,16.10
2018-09-21T17:51:43.974Z,16.00
2018-09-21T17:54:17.387Z,16.10
2018-09-21T17:56:46.660Z,16.10
2018-09-21T17:59:17.196Z,16.10
2018-09-21T18:01:47.283Z,16.10
2018-09-21T18:04:19.876Z,16.10
2018-09-21T18:06:55.238Z,16.00
2018-09-21T18:09:27.410Z,16.00
2018-09-21T18:12:00.753Z,16.00
2018-09-21T18:14:30.068Z,16.10
2018-09-21T18:16:59.467Z,16.00
2018-09-21T18:19:28.055Z,16.00
2018-09-21T18:21:56.623Z,16.10
2018-09-21T18:24:25.182Z,16.00
2018-09-21T18:26:54.106Z,16.10
2018-09-21T18:29:22.782Z,16.10
2018-09-21T18:31:51.359Z,16.00
2018-09-21T18:34:20.146Z,16.10
2018-09-21T18:36:51.325Z,16.00
2018-09-21T18:39:19.976Z,16.10
2018-09-21T18:41:49.955Z,16.10
2018-09-21T18:44:20.103Z,15.90
2018-09-21T18:46:50.695Z,15.90
2018-09-21T18:49:20.817Z,16.00
2018-09-21T18:51:50.392Z,16.00
2018-09-21T18:54:19.406Z,16.00
2018-09-21T18:56:49.492Z,15.90
2018-09-21T18:59:18.144Z,15.90
2018-09-21T19:01:48.277Z,15.90
2018-09-21T19:04:17.516Z,15.90
2018-09-21T19:06:46.844Z,15.80
2018-09-21T19:09:16.194Z,15.60
2018-09-21T19:11:49.604Z,15.50
2018-09-21T19:14:18.186Z,15.50
2018-09-21T19:16:46.741Z,15.40
2018-09-21T19:19:15.236Z,15.40
2018-09-21T19:21:44.245Z,15.50
2018-09-21T19:24:14.370Z,15.40
2018-09-21T19:26:43.536Z,15.40
2018-09-21T19:29:13.015Z,15.40
2018-09-21T19:31:41.919Z,15.40
2018-09-21T19:34:13.326Z,15.40
2018-09-21T19:36:42.775Z,15.40
2018-09-21T19:39:12.568Z,15.40
2018-09-21T19:41:41.382Z,15.40
2018-09-21T19:44:09.944Z,15.40
2018-09-21T19:46:40.374Z,15.40
2018-09-21T19:49:08.887Z,15.30
2018-09-21T19:51:38.418Z,15.30
2018-09-21T19:54:07.152Z,15.20
2018-09-21T19:56:35.686Z,15.10
2018-09-21T19:59:04.234Z,15.20
2018-09-21T20:01:33.893Z,15.20
2018-09-21T20:04:03.210Z,15.20
2018-09-21T20:06:31.771Z,15.20
2018-09-21T20:09:00.326Z,15.10
2018-09-21T20:11:29.850Z,15.10
2018-09-21T20:13:59.279Z,15.20
2018-09-21T20:16:27.882Z,15.20
2018-09-21T20:18:57.041Z,15.10
2018-09-21T20:21:26.515Z,15.10
2018-09-21T20:23:55.085Z,15.10
2018-09-21T20:26:23.579Z,15.10
2018-09-21T20:28:52.181Z,15.10
2018-09-21T20:31:26.574Z,15.00
2018-09-21T20:33:55.496Z,15.00
2018-09-21T20:36:24.224Z,14.90
2018-09-21T20:38:52.782Z,14.90
2018-09-21T20:41:21.253Z,15.00
2018-09-21T20:43:50.686Z,15.10
2018-09-21T20:46:19.502Z,15.00
2018-09-21T20:48:48.883Z,15.10
2018-09-21T20:51:17.464Z,15.10
2018-09-21T20:53:46.003Z,15.00
2018-09-21T20:56:14.503Z,15.10
2018-09-21T20:58:43.058Z,15.00
2018-09-21T21:01:20.749Z,15.00
2018-09-21T21:03:50.397Z,15.10
2018-09-21T21:06:21.487Z,15.00
2018-09-21T21:08:50.061Z,15.00
2018-09-21T21:11:18.954Z,14.80
2018-09-21T21:13:47.482Z,14.80
2018-09-21T21:16:16.918Z,14.90
2018-09-21T21:18:45.726Z,14.80
2018-09-21T21:21:15.249Z,14.80
2018-09-21T21:23:43.870Z,14.70
2018-09-21T21:26:12.400Z,14.70
2018-09-21T21:28:41.042Z,14.70
2018-09-21T21:31:09.837Z,14.70
2018-09-21T21:33:38.419Z,14.70
2018-09-21T21:36:07.201Z,14.60
2018-09-21T21:38:36.905Z,14.50
2018-09-21T21:41:06.165Z,14.50
2018-09-21T21:43:34.694Z,14.40
2018-09-21T21:46:03.234Z,14.40
2018-09-21T21:48:31.737Z,14.30
2018-09-21T21:51:00.597Z,14.30
2018-09-21T21:53:29.181Z,14.30
2018-09-21T21:55:57.711Z,14.30
2018-09-21T21:58:26.250Z,14.20
2018-09-21T22:01:00.013Z,14.30
2018-09-21T22:03:28.610Z,14.30
2018-09-21T22:05:57.151Z,14.30
2018-09-21T22:08:25.729Z,14.20
2018-09-21T22:10:54.261Z,14.20
2018-09-21T22:13:28.156Z,14.10
2018-09-21T22:15:56.715Z,14.10
2018-09-21T22:18:25.249Z,14.10
2018-09-21T22:20:53.798Z,14.10
2018-09-21T22:23:22.283Z,14.00
2018-09-21T22:25:50.801Z,14.00
2018-09-21T22:28:19.323Z,14.00
2018-09-21T22:30:47.854Z,14.10
2018-09-21T22:33:16.439Z,14.10
2018-09-21T22:35:45.369Z,14.10
2018-09-21T22:38:14.267Z,14.20
2018-09-21T22:40:42.804Z,14.20
2018-09-21T22:43:11.519Z,14.20
2018-09-21T22:45:40.055Z,14.10
2018-09-21T22:48:08.584Z,14.10
2018-09-21T22:50:37.135Z,14.10
2018-09-21T22:53:05.969Z,14.20
2018-09-21T22:55:34.504Z,14.20
2018-09-21T22:58:03.117Z,14.20
2018-09-21T23:00:31.719Z,14.20
2018-09-21T23:03:00.253Z,14.20
2018-09-21T23:05:28.921Z,14.20
2018-09-21T23:07:57.434Z,14.20
2018-09-21T23:10:25.974Z,14.20
2018-09-21T23:12:54.494Z,14.20
2018-09-21T23:15:23.039Z,14.20
2018-09-21T23:17:51.551Z,14.30
2018-09-21T23:20:20.082Z,14.20
2018-09-21T23:22:48.559Z,14.20
2018-09-21T23:25:17.074Z,14.20
2018-09-21T23:27:45.583Z,14.10
2018-09-21T23:30:14.098Z,14.20
2018-09-21T23:32:42.592Z,14.10
2018-09-21T23:35:11.139Z,14.10
2018-09-21T23:37:39.616Z,14.00
2018-09-21T23:40:08.196Z,14.00
2018-09-21T23:42:36.694Z,13.90
2018-09-21T23:45:05.285Z,13.90
2018-09-21T23:47:33.786Z,13.90
2018-09-21T23:50:02.297Z,13.90
2018-09-21T23:52:30.845Z,14.00
2018-09-21T23:54:59.354Z,14.00
2018-09-21T23:57:27.848Z,13.90
2018-09-21T23:59:56.374Z,13.90
